Grand Bank, Canada
Current Conditions -  °F | °C
As of 8:00 PM on Friday 19 Dec 2014 (Local Time) from LFVP Reporting Station
Broken Clouds Broken Clouds  
Wind Chill: 27°   Ceiling: 1500
Heat Index: 37°   Visibility: 6mi
Dew Point: 36°   Wind: 18mph
Humidity: 93%   Direction: 260°W
Pressure: 29.62"   Gusts: NA
Location:  47.1°N, 55.78°W
Report Text: LFVP 192300Z 26016KT 9999 BKN015 03/02 Q1003 NOSIG
Loading
Personal Weather Stations






























Interactive Weather Map New forecast layout! Learn more

10-Day Weather Forecast

Advertisements
Track Severe Weather on mobile